Spokane, WA

8:33 AM PST on December 25, 2014 (GMT -0800)
Fairchild Air Force Base | Change Station
CLOSE
Current Station
Airport
Location: Spokane Fairchild,
Elevation: 2461 ft
Nearby Weather Stations

Elev 2461 ft 47.62 °N, 117.66 °W | Updated 35 minutes ago

Clear
Clear
24 °F
Feels Like 16 °F
N
7
Wind Variable Wind from West

Today
High -- | Low -- °F
--% Chance of Precip.
Yesterday
High -- | Low -- °F
Precip. -- in
7:37 AM 4:03 PM
Waxing Crescent, 17% visible
Pressure 30.05 in
Visibility 10.0 miles
Clouds Clear
Windchill 16 °F
Dew Point 22 °F
Humidity 92%
Rainfall 0.00 in
Snow Depth Not available.
UV 0 out of 12
Pollen .10 out of 12
Air Quality Not available.
Flu Activity Not available.
METAR KSKA 251558Z AUTO 27006KT 10SM CLR M04/M06 A2996 RMK AO2 SLP174 T10451056

More Conditions Fewer Conditions

Pressure 30.05 in
Visibility 10.0 miles
Clouds Clear
Windchill 16 °F
Dew Point 22 °F
Humidity 92%
Rainfall 0.00 in
Snow Depth Not available.
UV 0 out of 12
Pollen .10 out of 12
Air Quality Not available.
Flu Activity Not available.
METAR KSKA 251558Z AUTO 27006KT 10SM CLR M04/M06 A2996 RMK AO2 SLP174 T10451056

More Conditions Fewer Conditions

Nowcast | as of 8:11 am PST on December 25, 2014

Motorists should be prepared for very slippery roads from thick fog through 10 am. Patchy fog will reduce visibilities to a quarter mile or less areas around Spokane...Post Falls...Coeur D'Alene...Cusick...and Colville. Fog may be the most problematic along the Spokane River...Lake Coeur D'Alene...the Pend Oreille river...and along Lake Roosevelt.

×

10-Day Weather Forecast

Almanac

Astronomy

Dec. 25, 2014 Rise Set
Actual Time
Civil Twilight
Nautical Twilight
Astronomical Twilight
Moon
Length of Visible Light
Length of Day
Tomorrow will be .
, % of the Moon is Illuminated

Today's Extremes

State Highs State Lows

Community

WunderPhotos

Upload Photos

1,780,336 photos uploaded!

WunderBlogs® & News

Nearby

Air Quality

  Air Quality AQ Index Pollutant
Not available.

Snow Depth

Station Depth Elevation

Earthquake Activity

City Distance Mag. Time & Date
Minimum magnitude displayed is 2.5.

Coastal Water Temperatures

Place Temperature

Nearby Weather Stations